Time;durP1;ratioP1;P1;durP2;ratioP2;P2;SDS_P1;SDS_P2;PMS_P1;PMS_P2;Temp;Humidity;BMP_temperature;BMP_pressure;BME280_temperature;BME280_humidity;BME280_pressure;Samples;Min_cycle;Max_cycle;Signal;HPM_P1;HPM_P2
2022/11/10 00:00:08;;;;;;;;;;;11.60;94.20;;;;;;5065567;28;19951;-75
2022/11/10 00:02:34;;;;;;;;;;;11.60;94.20;;;;;;5067607;28;20291;-75
2022/11/10 00:04:59;;;;;;;;;;;11.60;94.30;;;;;;5065518;28;19947;-75
2022/11/10 00:07:25;;;;;;;;;;;11.60;94.20;;;;;;5066167;28;19918;-75
2022/11/10 00:09:54;;;;;;;;;;;11.60;94.20;;;;;;5065743;28;19913;-75
2022/11/10 00:12:20;;;;;;;;;;;11.60;94.30;;;;;;5067612;28;20602;-75
2022/11/10 00:17:29;;;;;;;;;;;11.60;94.20;;;;;;5083128;28;19923;-75
2022/11/10 00:19:55;;;;;;;;;;;11.50;94.30;;;;;;5067160;28;20342;-75
2022/11/10 00:22:20;;;;;;;;;;;11.60;94.30;;;;;;5066232;28;19920;-74
2022/11/10 00:24:46;;;;;;;;;;;11.50;94.20;;;;;;5066048;28;20014;-75
2022/11/10 00:27:13;;;;;;;;;;;11.50;94.30;;;;;;5065219;28;19919;-75
2022/11/10 00:29:39;;;;;;;;;;;11.50;94.20;;;;;;5065670;28;20507;-75
2022/11/10 00:32:05;;;;;;;;;;;11.50;94.20;;;;;;5065773;28;20007;-75
2022/11/10 00:34:30;;;;;;;;;;;11.50;94.20;;;;;;5065350;28;20515;-75
2022/11/10 00:36:56;;;;;;;;;;;11.50;94.30;;;;;;5066883;28;19938;-75
2022/11/10 00:39:21;;;;;;;;;;;11.50;94.30;;;;;;5065256;28;20475;-75
2022/11/10 00:41:47;;;;;;;;;;;11.50;94.30;;;;;;5065430;28;19934;-75
2022/11/10 00:44:12;;;;;;;;;;;11.50;94.30;;;;;;5071042;28;19947;-75
2022/11/10 00:46:37;;;;;;;;;;;11.50;94.30;;;;;;5065553;28;19912;-75
2022/11/10 00:49:03;;;;;;;;;;;11.50;94.30;;;;;;5065590;28;19923;-75
2022/11/10 00:51:28;;;;;;;;;;;11.50;94.30;;;;;;5064970;28;20262;-75
2022/11/10 00:53:54;;;;;;;;;;;11.50;94.30;;;;;;5066632;28;19966;-75
2022/11/10 00:56:20;;;;;;;;;;;11.50;94.30;;;;;;5065267;28;19917;-75
2022/11/10 00:58:45;;;;;;;;;;;11.40;94.30;;;;;;5065174;28;19917;-75
2022/11/10 01:01:11;;;;;;;;;;;11.50;94.30;;;;;;5065095;28;19918;-74
2022/11/10 01:03:37;;;;;;;;;;;11.40;94.30;;;;;;5066515;28;20339;-75
2022/11/10 01:06:07;;;;;;;;;;;11.40;94.30;;;;;;5065254;28;19916;-75
2022/11/10 01:08:32;;;;;;;;;;;11.40;94.30;;;;;;5064575;28;19912;-75
2022/11/10 01:11:02;;;;;;;;;;;11.40;94.30;;;;;;5066109;28;19923;-75
2022/11/10 01:13:27;;;;;;;;;;;11.40;94.30;;;;;;5075959;28;19942;-75
2022/11/10 01:15:53;;;;;;;;;;;11.40;94.30;;;;;;5084099;28;20623;-75
2022/11/10 01:18:18;;;;;;;;;;;11.40;94.30;;;;;;5085532;28;19919;-75
2022/11/10 01:20:48;;;;;;;;;;;11.40;94.30;;;;;;5084978;28;20599;-75
2022/11/10 01:23:14;;;;;;;;;;;11.40;94.30;;;;;;5084691;28;19969;-75
2022/11/10 01:25:39;;;;;;;;;;;11.40;94.30;;;;;;5082953;28;19929;-75
2022/11/10 01:28:04;;;;;;;;;;;11.40;94.30;;;;;;5064560;28;20015;-75
2022/11/10 01:30:30;;;;;;;;;;;11.40;94.30;;;;;;5064794;28;20323;-75
2022/11/10 01:32:56;;;;;;;;;;;11.40;94.30;;;;;;5064922;28;19923;-75
2022/11/10 01:35:21;;;;;;;;;;;11.40;94.30;;;;;;5064768;28;19942;-75
2022/11/10 01:37:47;;;;;;;;;;;11.40;94.30;;;;;;5067270;28;19920;-75
2022/11/10 01:40:12;;;;;;;;;;;11.40;94.30;;;;;;5084381;28;19912;-75
2022/11/10 01:42:47;;;;;;;;;;;11.40;94.30;;;;;;5076668;28;19912;-75
2022/11/10 01:45:21;;;;;;;;;;;11.30;94.30;;;;;;5085025;28;19908;-75
2022/11/10 01:47:48;;;;;;;;;;;11.30;94.30;;;;;;5084938;28;19912;-75
2022/11/10 01:50:13;;;;;;;;;;;11.30;94.30;;;;;;5078329;28;19948;-75
2022/11/10 01:52:40;;;;;;;;;;;11.40;94.30;;;;;;5072464;28;20019;-75
2022/11/10 01:55:06;;;;;;;;;;;11.30;94.30;;;;;;5084936;28;19916;-75
2022/11/10 01:57:32;;;;;;;;;;;11.30;94.30;;;;;;5078148;28;19962;-75
2022/11/10 01:59:57;;;;;;;;;;;11.30;94.30;;;;;;5059306;28;19928;-75
2022/11/10 02:02:29;;;;;;;;;;;11.30;94.30;;;;;;5043380;28;20016;-75
2022/11/10 02:04:54;;;;;;;;;;;11.30;94.30;;;;;;5044901;28;20522;-75
2022/11/10 02:07:21;;;;;;;;;;;11.30;94.30;;;;;;5045830;28;19923;-75
2022/11/10 02:09:46;;;;;;;;;;;11.30;94.40;;;;;;5079034;28;19923;-75
2022/11/10 02:12:12;;;;;;;;;;;11.30;94.40;;;;;;5078607;28;20354;-75
2022/11/10 02:14:38;;;;;;;;;;;11.20;94.40;;;;;;5067633;28;19917;-75
2022/11/10 02:17:03;;;;;;;;;;;11.30;94.40;;;;;;5065639;28;19917;-75
2022/11/10 02:19:29;;;;;;;;;;;11.30;94.40;;;;;;5067638;28;20357;-75
2022/11/10 02:21:54;;;;;;;;;;;11.20;94.30;;;;;;5069413;28;19977;-75
2022/11/10 02:24:20;;;;;;;;;;;11.30;94.40;;;;;;5068383;28;19912;-75
2022/11/10 02:26:49;;;;;;;;;;;11.20;94.30;;;;;;5068180;28;19913;-75
2022/11/10 02:29:14;;;;;;;;;;;11.30;94.40;;;;;;5068325;28;19930;-75
2022/11/10 02:31:40;;;;;;;;;;;11.20;94.30;;;;;;5067081;28;19946;-75
2022/11/10 02:34:05;;;;;;;;;;;11.30;94.40;;;;;;5062970;28;20265;-75
2022/11/10 02:36:31;;;;;;;;;;;11.20;94.30;;;;;;5075646;28;19955;-75
2022/11/10 02:38:57;;;;;;;;;;;11.20;94.30;;;;;;5088292;28;20573;-75
2022/11/10 02:41:22;;;;;;;;;;;11.30;94.30;;;;;;5087900;28;20475;-75
2022/11/10 02:43:47;;;;;;;;;;;11.30;94.40;;;;;;5079239;28;19908;-75
2022/11/10 02:46:13;;;;;;;;;;;11.20;94.40;;;;;;5086634;28;19912;-75
2022/11/10 02:48:38;;;;;;;;;;;11.20;94.30;;;;;;5076621;28;20324;-75
2022/11/10 02:51:04;;;;;;;;;;;11.20;94.30;;;;;;5065184;28;19913;-75
2022/11/10 02:53:29;;;;;;;;;;;11.20;94.30;;;;;;5071663;28;19924;-75
2022/11/10 02:55:55;;;;;;;;;;;11.30;94.40;;;;;;5067778;28;19973;-75
2022/11/10 02:58:20;;;;;;;;;;;11.20;94.30;;;;;;5067863;28;19968;-75
2022/11/10 03:00:46;;;;;;;;;;;11.20;94.40;;;;;;5067035;28;19938;-75
2022/11/10 03:03:11;;;;;;;;;;;11.20;94.40;;;;;;5067560;28;19912;-75
2022/11/10 03:05:37;;;;;;;;;;;11.20;94.40;;;;;;5067543;28;20283;-75
2022/11/10 03:08:03;;;;;;;;;;;11.20;94.30;;;;;;5087017;28;19920;-75
2022/11/10 03:10:29;;;;;;;;;;;11.20;94.40;;;;;;5087178;28;19981;-75
2022/11/10 03:12:55;;;;;;;;;;;11.20;94.40;;;;;;5078594;28;20574;-75
2022/11/10 03:15:21;;;;;;;;;;;11.20;94.40;;;;;;5087349;28;20006;-75
2022/11/10 03:17:46;;;;;;;;;;;11.20;94.30;;;;;;5086917;28;20003;-75
2022/11/10 03:20:12;;;;;;;;;;;11.20;94.30;;;;;;5087274;28;19989;-76
2022/11/10 03:22:37;;;;;;;;;;;11.20;94.40;;;;;;5086051;28;20554;-75
2022/11/10 03:25:03;;;;;;;;;;;11.20;94.40;;;;;;5085145;28;19927;-75
2022/11/10 03:27:28;;;;;;;;;;;11.20;94.40;;;;;;5087050;28;19993;-75
2022/11/10 03:29:54;;;;;;;;;;;11.20;94.40;;;;;;5075977;28;19952;-75
2022/11/10 03:32:19;;;;;;;;;;;11.20;94.40;;;;;;5046612;28;19919;-75
2022/11/10 03:34:45;;;;;;;;;;;11.20;94.40;;;;;;5046433;28;19912;-75
2022/11/10 03:37:10;;;;;;;;;;;11.20;94.40;;;;;;5046466;28;19982;-76
2022/11/10 03:39:36;;;;;;;;;;;11.20;94.40;;;;;;5061204;28;19916;-75
2022/11/10 03:42:01;;;;;;;;;;;11.20;94.30;;;;;;5066156;28;19913;-75
2022/11/10 03:44:27;;;;;;;;;;;11.20;94.40;;;;;;5083863;28;19919;-75
2022/11/10 03:46:52;;;;;;;;;;;11.20;94.40;;;;;;5085287;28;20357;-75
2022/11/10 03:49:18;;;;;;;;;;;11.20;94.40;;;;;;5072026;28;19927;-75
2022/11/10 03:51:43;;;;;;;;;;;11.10;94.40;;;;;;5065905;28;19929;-75
2022/11/10 03:54:09;;;;;;;;;;;11.20;94.40;;;;;;5066222;28;19916;-75
2022/11/10 03:56:34;;;;;;;;;;;11.20;94.40;;;;;;5067091;28;20093;-75
2022/11/10 03:58:59;;;;;;;;;;;11.20;94.40;;;;;;5065821;28;19913;-75
2022/11/10 04:01:25;;;;;;;;;;;11.10;94.40;;;;;;5081019;28;20717;-75
2022/11/10 04:03:50;;;;;;;;;;;11.20;94.40;;;;;;5046161;28;19913;-75
2022/11/10 04:09:00;;;;;;;;;;;11.20;94.40;;;;;;5046125;28;20493;-75
2022/11/10 04:16:56;;;;;;;;;;;11.10;94.40;;;;;;5085918;28;19927;-75
2022/11/10 04:19:21;;;;;;;;;;;11.10;94.40;;;;;;5085882;28;19912;-75
2022/11/10 04:21:47;;;;;;;;;;;11.10;94.50;;;;;;5086306;28;20466;-75
2022/11/10 04:24:12;;;;;;;;;;;11.10;94.50;;;;;;5085880;28;19918;-73
2022/11/10 04:26:39;;;;;;;;;;;11.10;94.40;;;;;;5086084;28;19948;-74
2022/11/10 04:29:07;;;;;;;;;;;11.10;94.40;;;;;;5085580;28;19912;-74
2022/11/10 04:31:34;;;;;;;;;;;11.10;94.40;;;;;;5049067;28;19916;-73
2022/11/10 04:34:00;;;;;;;;;;;11.10;94.40;;;;;;5044995;28;19998;-73
2022/11/10 04:36:29;;;;;;;;;;;11.10;94.40;;;;;;5045933;28;19958;-74
2022/11/10 04:38:54;;;;;;;;;;;11.10;94.50;;;;;;5060505;28;19997;-73
2022/11/10 04:41:21;;;;;;;;;;;11.10;94.40;;;;;;5065623;28;19973;-74
2022/11/10 04:43:46;;;;;;;;;;;11.10;94.50;;;;;;5078758;28;20652;-73
2022/11/10 04:46:21;;;;;;;;;;;11.00;94.50;;;;;;5073563;28;19944;-73
2022/11/10 04:48:47;;;;;;;;;;;11.10;94.50;;;;;;5064840;28;20467;-73
2022/11/10 04:51:13;;;;;;;;;;;11.00;94.50;;;;;;5064693;28;19912;-74
2022/11/10 04:53:38;;;;;;;;;;;11.10;94.50;;;;;;5065146;28;19916;-73
2022/11/10 04:56:04;;;;;;;;;;;11.00;94.50;;;;;;5065534;28;19919;-74
2022/11/10 04:58:29;;;;;;;;;;;11.10;94.50;;;;;;5065484;28;20350;-73
2022/11/10 05:00:55;;;;;;;;;;;11.00;94.50;;;;;;5064963;28;19912;-73
2022/11/10 05:03:20;;;;;;;;;;;11.00;94.50;;;;;;5081186;28;20365;-73
2022/11/10 05:05:46;;;;;;;;;;;11.00;94.40;;;;;;5064855;28;19917;-73
2022/11/10 05:08:11;;;;;;;;;;;11.00;94.50;;;;;;5065389;28;19913;-73
2022/11/10 05:10:37;;;;;;;;;;;11.00;94.50;;;;;;5064739;28;19912;-73
2022/11/10 05:13:03;;;;;;;;;;;11.00;94.50;;;;;;5071569;28;19916;-73
2022/11/10 05:15:29;;;;;;;;;;;11.00;94.50;;;;;;5085415;28;19967;-73
2022/11/10 05:17:54;;;;;;;;;;;11.00;94.50;;;;;;5085147;28;20745;-73
2022/11/10 05:20:21;;;;;;;;;;;11.00;94.50;;;;;;5083730;28;19916;-73
2022/11/10 05:23:36;;;;;;;;;;;11.00;94.50;;;;;;5085302;28;19919;-74
2022/11/10 05:25:33;;;;;;;;;;;11.00;94.50;;;;;;5083596;28;19912;-73
2022/11/10 05:27:59;;;;;;;;;;;10.90;94.50;;;;;;5064537;28;19916;-73
2022/11/10 05:30:24;;;;;;;;;;;11.00;94.50;;;;;;5062386;28;19948;-73
2022/11/10 05:32:50;;;;;;;;;;;11.00;94.50;;;;;;5064866;28;19916;-73
2022/11/10 05:35:15;;;;;;;;;;;11.00;94.50;;;;;;5064917;28;19916;-74
2022/11/10 05:37:40;;;;;;;;;;;10.90;94.50;;;;;;5064369;28;19916;-73
2022/11/10 05:40:06;;;;;;;;;;;10.90;94.50;;;;;;5064361;28;19912;-73
2022/11/10 05:42:32;;;;;;;;;;;10.90;94.50;;;;;;5066907;28;19912;-74
2022/11/10 05:44:57;;;;;;;;;;;10.90;94.40;;;;;;5085520;28;19951;-73
2022/11/10 05:47:23;;;;;;;;;;;10.90;94.40;;;;;;5088871;28;19912;-73
2022/11/10 05:49:48;;;;;;;;;;;10.90;94.40;;;;;;5085965;28;19920;-73
2022/11/10 05:52:14;;;;;;;;;;;10.90;94.40;;;;;;5067879;28;19967;-74
2022/11/10 05:54:39;;;;;;;;;;;10.90;94.50;;;;;;5068306;28;19908;-73
2022/11/10 05:57:05;;;;;;;;;;;10.90;94.40;;;;;;5071085;28;19917;-74
2022/11/10 05:59:30;;;;;;;;;;;10.90;94.40;;;;;;5086093;28;19995;-74
2022/11/10 06:01:55;;;;;;;;;;;10.90;94.40;;;;;;5051231;28;19921;-73
2022/11/10 06:04:21;;;;;;;;;;;10.90;94.40;;;;;;5068470;28;19912;-73
2022/11/10 06:06:46;;;;;;;;;;;10.90;94.50;;;;;;5068449;28;20027;-74
2022/11/10 06:09:12;;;;;;;;;;;10.90;94.50;;;;;;5067936;28;19912;-73
2022/11/10 06:11:37;;;;;;;;;;;10.90;94.50;;;;;;5067736;28;19942;-73
2022/11/10 06:14:03;;;;;;;;;;;10.90;94.70;;;;;;5083295;28;19920;-73
2022/11/10 06:16:29;;;;;;;;;;;10.90;94.50;;;;;;5088679;28;20475;-74
2022/11/10 06:18:54;;;;;;;;;;;10.90;94.50;;;;;;5088497;28;19987;-73
2022/11/10 06:21:20;;;;;;;;;;;10.90;94.50;;;;;;5088154;28;19919;-73
2022/11/10 06:23:45;;;;;;;;;;;10.90;94.50;;;;;;5088218;28;19916;-73
2022/11/10 06:26:11;;;;;;;;;;;10.90;94.60;;;;;;5088452;28;20730;-73
2022/11/10 06:28:36;;;;;;;;;;;10.90;94.50;;;;;;5088531;28;19913;-73
2022/11/10 06:31:02;;;;;;;;;;;10.90;94.50;;;;;;5072442;28;20393;-74
2022/11/10 06:33:27;;;;;;;;;;;10.90;94.50;;;;;;5067196;28;19916;-74
2022/11/10 06:35:53;;;;;;;;;;;10.90;94.50;;;;;;5066810;28;20007;-73
2022/11/10 06:38:18;;;;;;;;;;;10.90;94.50;;;;;;5065632;28;19943;-74
2022/11/10 06:40:44;;;;;;;;;;;10.90;94.50;;;;;;5066307;28;19969;-74
2022/11/10 06:43:09;;;;;;;;;;;10.80;94.50;;;;;;5074678;28;19908;-74
2022/11/10 06:45:35;;;;;;;;;;;10.80;94.50;;;;;;5086515;28;19912;-73
2022/11/10 06:48:04;;;;;;;;;;;10.80;94.50;;;;;;5069337;28;20491;-74
2022/11/10 06:50:30;;;;;;;;;;;10.90;94.50;;;;;;5065262;28;19913;-74
2022/11/10 06:52:56;;;;;;;;;;;10.80;94.50;;;;;;5066071;28;19913;-73
2022/11/10 06:55:22;;;;;;;;;;;10.90;94.50;;;;;;5066286;28;19920;-73
2022/11/10 06:57:47;;;;;;;;;;;10.80;94.50;;;;;;5065903;28;19926;-73
2022/11/10 07:00:14;;;;;;;;;;;10.90;94.50;;;;;;5066070;28;19986;-73
2022/11/10 07:02:39;;;;;;;;;;;10.90;94.50;;;;;;5067152;28;19916;-73
2022/11/10 07:05:05;;;;;;;;;;;10.80;94.50;;;;;;5066568;28;19916;-73
2022/11/10 07:07:30;;;;;;;;;;;10.90;94.50;;;;;;5066646;28;19962;-74
2022/11/10 07:09:56;;;;;;;;;;;10.90;94.50;;;;;;5064701;28;20015;-73
2022/11/10 07:12:21;;;;;;;;;;;10.90;94.50;;;;;;5067957;28;19920;-73
2022/11/10 07:14:47;;;;;;;;;;;10.80;94.50;;;;;;5086736;28;20335;-73
2022/11/10 07:17:13;;;;;;;;;;;10.90;94.50;;;;;;5086256;28;19919;-74
2022/11/10 07:19:38;;;;;;;;;;;10.90;94.50;;;;;;5084684;28;20002;-73
2022/11/10 07:22:03;;;;;;;;;;;10.90;94.50;;;;;;5086230;28;20054;-73
2022/11/10 07:24:29;;;;;;;;;;;10.80;94.50;;;;;;5086339;28;19912;-73
2022/11/10 07:26:56;;;;;;;;;;;10.80;94.50;;;;;;5084707;28;19947;-73
2022/11/10 07:29:22;;;;;;;;;;;10.80;94.50;;;;;;5085716;28;19912;-73
2022/11/10 07:31:47;;;;;;;;;;;10.80;94.50;;;;;;5045715;28;19920;-73
2022/11/10 07:34:13;;;;;;;;;;;10.80;94.50;;;;;;5045730;28;19949;-73
2022/11/10 07:36:38;;;;;;;;;;;10.80;94.50;;;;;;5056115;28;19917;-73
2022/11/10 07:39:04;;;;;;;;;;;10.90;94.60;;;;;;5066180;28;19916;-73
2022/11/10 07:41:29;;;;;;;;;;;10.90;94.60;;;;;;5065790;28;19908;-74
2022/11/10 07:43:55;;;;;;;;;;;10.80;94.50;;;;;;5079362;28;19954;-73
2022/11/10 07:46:20;;;;;;;;;;;10.90;94.50;;;;;;5086209;28;19912;-73
2022/11/10 07:48:46;;;;;;;;;;;10.80;94.50;;;;;;5085763;28;19980;-73
2022/11/10 07:51:12;;;;;;;;;;;10.80;94.60;;;;;;5071312;28;19926;-73
2022/11/10 07:53:38;;;;;;;;;;;10.90;94.50;;;;;;5065185;28;19916;-73
2022/11/10 07:56:04;;;;;;;;;;;10.90;94.50;;;;;;5065455;28;19993;-73
2022/11/10 07:58:31;;;;;;;;;;;10.90;94.50;;;;;;5072168;28;19912;-73
2022/11/10 08:00:56;;;;;;;;;;;10.90;94.50;;;;;;5064306;28;20383;-74
2022/11/10 08:03:22;;;;;;;;;;;10.90;94.60;;;;;;5065683;28;19939;-73
2022/11/10 08:05:47;;;;;;;;;;;10.90;94.60;;;;;;5065674;28;19919;-73
2022/11/10 08:08:13;;;;;;;;;;;10.90;94.60;;;;;;5065491;28;20350;-73
2022/11/10 08:10:39;;;;;;;;;;;10.90;94.60;;;;;;5064838;28;19913;-73
2022/11/10 08:13:07;;;;;;;;;;;10.90;94.50;;;;;;5068345;28;19916;-73
2022/11/10 08:15:33;;;;;;;;;;;10.90;94.60;;;;;;5071455;28;19917;-73
2022/11/10 08:18:03;;;;;;;;;;;10.90;94.60;;;;;;5066293;28;19920;-73
2022/11/10 08:20:28;;;;;;;;;;;10.90;94.60;;;;;;5065186;28;20025;-74
2022/11/10 08:22:58;;;;;;;;;;;10.90;94.50;;;;;;5065910;28;19913;-73
2022/11/10 08:25:24;;;;;;;;;;;10.90;94.50;;;;;;5066005;28;20626;-74
2022/11/10 08:27:55;;;;;;;;;;;10.90;94.60;;;;;;5065750;28;19985;-73
2022/11/10 08:30:20;;;;;;;;;;;10.90;94.70;;;;;;5066963;28;19924;-73
2022/11/10 08:32:46;;;;;;;;;;;11.00;94.70;;;;;;5046114;28;19977;-74
2022/11/10 08:35:11;;;;;;;;;;;11.00;94.50;;;;;;5045606;28;20688;-73
2022/11/10 08:37:37;;;;;;;;;;;11.00;94.60;;;;;;5045536;28;19913;-74
2022/11/10 08:40:03;;;;;;;;;;;11.00;94.70;;;;;;5044647;28;19917;-73
2022/11/10 08:42:28;;;;;;;;;;;10.90;94.60;;;;;;5050337;28;19912;-73
2022/11/10 08:44:54;;;;;;;;;;;11.00;94.50;;;;;;5085373;28;20242;-73
2022/11/10 08:47:19;;;;;;;;;;;11.00;94.60;;;;;;5068423;28;20649;-74
2022/11/10 08:49:45;;;;;;;;;;;11.00;94.70;;;;;;5060079;28;19919;-74
2022/11/10 08:52:12;;;;;;;;;;;11.00;94.60;;;;;;5065262;28;20774;-73
2022/11/10 08:54:37;;;;;;;;;;;11.10;94.60;;;;;;5065233;28;20386;-73
2022/11/10 08:57:03;;;;;;;;;;;11.00;94.60;;;;;;5065360;28;19912;-73
2022/11/10 08:59:28;;;;;;;;;;;11.00;94.70;;;;;;5065192;28;19917;-74
2022/11/10 09:01:54;;;;;;;;;;;11.00;94.70;;;;;;5072152;28;20578;-73
2022/11/10 09:04:19;;;;;;;;;;;11.10;94.70;;;;;;5085601;28;19912;-73
2022/11/10 09:06:44;;;;;;;;;;;11.10;94.60;;;;;;5083977;28;19912;-73
2022/11/10 09:09:10;;;;;;;;;;;11.10;94.50;;;;;;5072572;28;19927;-73
2022/11/10 09:11:35;;;;;;;;;;;11.10;94.50;;;;;;5063316;28;20666;-74
2022/11/10 09:14:01;;;;;;;;;;;11.10;94.60;;;;;;5069647;28;19923;-73
2022/11/10 09:16:26;;;;;;;;;;;11.10;94.70;;;;;;5064915;28;19948;-74
2022/11/10 09:18:52;;;;;;;;;;;11.20;94.80;;;;;;5076610;28;20061;-73
2022/11/10 09:21:17;;;;;;;;;;;11.20;94.60;;;;;;5085350;28;20018;-73
2022/11/10 09:23:43;;;;;;;;;;;11.20;94.60;;;;;;5085417;28;19952;-74
2022/11/10 09:26:08;;;;;;;;;;;11.20;94.80;;;;;;5085540;28;20253;-74
2022/11/10 09:28:34;;;;;;;;;;;11.20;94.60;;;;;;5085700;28;19917;-74
2022/11/10 09:30:59;;;;;;;;;;;11.20;94.90;;;;;;5062871;28;19923;-73
2022/11/10 09:33:25;;;;;;;;;;;11.20;94.80;;;;;;5058633;28;19923;-73
2022/11/10 09:35:55;;;;;;;;;;;11.20;94.70;;;;;;5061299;28;19956;-73
2022/11/10 09:38:20;;;;;;;;;;;11.20;94.80;;;;;;5063358;28;20312;-74
2022/11/10 09:41:01;;;;;;;;;;;11.20;94.80;;;;;;5062934;28;19918;-74
2022/11/10 09:43:47;;;;;;;;;;;11.20;94.70;;;;;;5074082;28;20560;-73
2022/11/10 09:46:26;;;;;;;;;;;11.30;94.70;;;;;;5078891;28;19960;-73
2022/11/10 09:48:58;;;;;;;;;;;11.30;94.90;;;;;;5082846;28;20720;-74
2022/11/10 09:51:31;;;;;;;;;;;11.30;94.60;;;;;;5068527;28;20424;-73
2022/11/10 09:54:00;;;;;;;;;;;11.30;94.60;;;;;;5063073;28;19917;-74
2022/11/10 09:56:44;;;;;;;;;;;11.30;94.60;;;;;;5063478;28;20050;-74
2022/11/10 09:59:15;;;;;;;;;;;11.30;94.70;;;;;;5063456;28;19912;-73
2022/11/10 10:01:43;;;;;;;;;;;11.40;94.60;;;;;;5062592;28;19909;-73
2022/11/10 10:04:11;;;;;;;;;;;11.40;94.60;;;;;;5062667;28;20078;-74
2022/11/10 10:06:43;;;;;;;;;;;11.40;94.60;;;;;;5062322;28;20401;-74
2022/11/10 10:09:10;;;;;;;;;;;11.40;94.60;;;;;;5063323;28;20356;-74
2022/11/10 10:11:36;;;;;;;;;;;11.40;94.80;;;;;;5042745;28;19917;-73
2022/11/10 10:14:04;;;;;;;;;;;11.50;94.70;;;;;;5072596;28;19916;-74
2022/11/10 10:16:29;;;;;;;;;;;11.50;94.60;;;;;;5082812;28;19943;-73
2022/11/10 10:19:01;;;;;;;;;;;11.50;94.60;;;;;;5082803;28;20237;-73
2022/11/10 10:21:42;;;;;;;;;;;11.50;94.60;;;;;;5070190;28;19991;-73
2022/11/10 10:24:12;;;;;;;;;;;11.50;94.50;;;;;;5063662;28;19952;-73
2022/11/10 10:26:43;;;;;;;;;;;11.60;94.40;;;;;;5062723;28;19912;-73
2022/11/10 10:29:13;;;;;;;;;;;11.60;94.40;;;;;;5062938;28;20021;-73
2022/11/10 10:31:44;;;;;;;;;;;11.60;94.40;;;;;;5062880;28;19948;-73
2022/11/10 10:34:14;;;;;;;;;;;11.60;94.40;;;;;;5066362;28;19916;-73
2022/11/10 10:36:40;;;;;;;;;;;11.60;94.40;;;;;;5065560;28;20246;-74
2022/11/10 10:39:32;;;;;;;;;;;11.60;94.40;;;;;;5066141;28;19918;-73
2022/11/10 10:41:57;;;;;;;;;;;11.70;94.50;;;;;;5080378;28;19961;-74
2022/11/10 10:44:23;;;;;;;;;;;11.70;94.40;;;;;;5068125;28;19920;-74
2022/11/10 10:46:56;;;;;;;;;;;11.70;94.40;;;;;;5066460;28;20525;-74
2022/11/10 10:49:22;;;;;;;;;;;11.70;94.50;;;;;;5065748;28;19977;-73
2022/11/10 10:51:49;;;;;;;;;;;11.70;94.50;;;;;;5065362;28;20388;-74
2022/11/10 10:54:21;;;;;;;;;;;11.80;94.50;;;;;;5065806;28;19916;-74
2022/11/10 10:56:46;;;;;;;;;;;11.80;94.50;;;;;;5066046;28;19912;-74
2022/11/10 10:59:18;;;;;;;;;;;11.80;94.50;;;;;;5067024;28;20262;-73
2022/11/10 11:01:43;;;;;;;;;;;11.80;94.30;;;;;;5065729;28;20706;-73
2022/11/10 11:04:25;;;;;;;;;;;11.90;94.30;;;;;;5065861;28;19912;-74
2022/11/10 11:06:55;;;;;;;;;;;11.90;94.40;;;;;;5065195;28;20145;-73
2022/11/10 11:09:25;;;;;;;;;;;11.90;94.20;;;;;;5066286;28;19916;-74
2022/11/10 11:12:01;;;;;;;;;;;12.00;94.40;;;;;;5065434;28;19916;-74
2022/11/10 11:14:28;;;;;;;;;;;12.00;94.50;;;;;;5079873;28;19920;-73
2022/11/10 11:16:57;;;;;;;;;;;12.10;94.20;;;;;;5066570;28;19918;-73
2022/11/10 11:19:24;;;;;;;;;;;12.10;94.30;;;;;;5066063;28;19909;-74
2022/11/10 11:21:53;;;;;;;;;;;12.10;94.30;;;;;;5066648;28;19928;-73
2022/11/10 11:24:18;;;;;;;;;;;12.10;94.40;;;;;;5073405;28;19923;-74
2022/11/10 11:26:53;;;;;;;;;;;12.20;94.30;;;;;;5072111;28;19917;-73
2022/11/10 11:29:37;;;;;;;;;;;12.20;94.20;;;;;;5053023;28;19916;-73
2022/11/10 11:32:11;;;;;;;;;;;12.20;94.30;;;;;;5064896;28;19912;-73
2022/11/10 11:35:15;;;;;;;;;;;12.20;94.30;;;;;;5065697;28;19927;-74
2022/11/10 11:37:47;;;;;;;;;;;12.30;94.20;;;;;;5070785;28;19919;-74
2022/11/10 11:40:30;;;;;;;;;;;12.30;94.20;;;;;;5068842;28;19916;-73
2022/11/10 11:42:56;;;;;;;;;;;12.30;94.20;;;;;;5071319;28;19959;-73
2022/11/10 11:45:27;;;;;;;;;;;12.40;94.20;;;;;;5086302;28;19996;-74
2022/11/10 11:47:59;;;;;;;;;;;12.40;94.20;;;;;;5080961;28;19985;-73
2022/11/10 11:50:49;;;;;;;;;;;12.40;94.30;;;;;;5064628;28;19916;-73
2022/11/10 11:53:33;;;;;;;;;;;12.50;94.30;;;;;;5061942;28;19920;-74
2022/11/10 11:55:59;;;;;;;;;;;12.50;94.10;;;;;;5064364;28;20109;-73
2022/11/10 11:58:40;;;;;;;;;;;12.50;94.10;;;;;;5064176;28;19929;-74
2022/11/10 12:01:20;;;;;;;;;;;12.60;94.20;;;;;;5049485;28;19916;-73
2022/11/10 12:04:24;;;;;;;;;;;12.60;94.20;;;;;;5052867;28;19963;-73
2022/11/10 12:07:15;;;;;;;;;;;12.60;94.10;;;;;;5090021;28;20006;-74
2022/11/10 12:09:45;;;;;;;;;;;12.70;94.20;;;;;;5057041;28;19920;-74
2022/11/10 12:12:29;;;;;;;;;;;12.70;94.10;;;;;;5057490;28;19921;-74
2022/11/10 12:15:08;;;;;;;;;;;12.70;94.10;;;;;;5084922;28;20028;-74
2022/11/10 12:17:39;;;;;;;;;;;12.70;94.10;;;;;;5085424;28;20536;-74
2022/11/10 12:20:29;;;;;;;;;;;12.80;94.10;;;;;;5084615;28;20010;-73
2022/11/10 12:23:00;;;;;;;;;;;12.80;94.10;;;;;;5084760;28;19998;-73
2022/11/10 12:25:39;;;;;;;;;;;12.80;94.20;;;;;;5081096;28;19912;-74
2022/11/10 12:28:24;;;;;;;;;;;12.80;94.10;;;;;;5063382;28;20454;-74
2022/11/10 12:30:52;;;;;;;;;;;12.90;94.20;;;;;;5058682;28;19917;-74
2022/11/10 12:33:20;;;;;;;;;;;12.90;94.30;;;;;;5064332;28;19916;-74
2022/11/10 12:35:46;;;;;;;;;;;12.90;94.10;;;;;;5064582;28;20442;-73
2022/11/10 12:38:14;;;;;;;;;;;12.90;94.20;;;;;;5065033;28;19920;-74
2022/11/10 12:40:45;;;;;;;;;;;13.00;94.20;;;;;;5064533;28;19920;-74
2022/11/10 12:43:27;;;;;;;;;;;13.00;94.20;;;;;;5080177;28;19912;-73
2022/11/10 12:45:58;;;;;;;;;;;13.00;94.20;;;;;;5084849;28;19916;-74
2022/11/10 12:48:27;;;;;;;;;;;13.00;94.30;;;;;;5083871;28;19920;-74
2022/11/10 12:50:57;;;;;;;;;;;13.10;94.20;;;;;;5072746;28;20678;-73
2022/11/10 12:53:24;;;;;;;;;;;13.10;94.30;;;;;;5063081;28;19923;-74
2022/11/10 12:56:01;;;;;;;;;;;13.10;94.10;;;;;;5063598;28;19970;-74
2022/11/10 12:58:27;;;;;;;;;;;13.10;94.20;;;;;;5067072;28;20550;-74
2022/11/10 13:00:54;;;;;;;;;;;13.20;94.20;;;;;;5058001;28;20506;-73
2022/11/10 13:03:27;;;;;;;;;;;13.20;94.20;;;;;;5044222;28;19919;-74
2022/11/10 13:05:54;;;;;;;;;;;13.20;94.20;;;;;;5044218;28;19915;-73
2022/11/10 13:08:23;;;;;;;;;;;13.20;94.10;;;;;;5044411;28;20261;-73
2022/11/10 13:10:56;;;;;;;;;;;13.20;94.20;;;;;;5042647;28;19916;-73
2022/11/10 13:13:22;;;;;;;;;;;13.20;94.20;;;;;;5063487;28;19916;-74
2022/11/10 13:15:56;;;;;;;;;;;13.30;94.30;;;;;;5076413;28;20399;-73
2022/11/10 13:18:22;;;;;;;;;;;13.30;94.30;;;;;;5081679;28;19955;-73
2022/11/10 13:20:49;;;;;;;;;;;13.30;94.30;;;;;;5084783;28;19955;-73
2022/11/10 13:23:21;;;;;;;;;;;13.30;94.40;;;;;;5085287;28;19923;-73
2022/11/10 13:25:50;;;;;;;;;;;13.20;94.40;;;;;;5084928;28;19916;-73
2022/11/10 13:28:35;;;;;;;;;;;13.30;94.30;;;;;;5085487;28;19995;-74
2022/11/10 13:31:21;;;;;;;;;;;13.30;94.30;;;;;;5050681;28;19986;-73
2022/11/10 13:34:03;;;;;;;;;;;13.30;94.40;;;;;;5044359;28;19921;-73
2022/11/10 13:36:36;;;;;;;;;;;13.30;94.40;;;;;;5045023;28;19913;-73
2022/11/10 13:39:14;;;;;;;;;;;13.30;94.40;;;;;;5051641;28;20406;-74
2022/11/10 13:41:49;;;;;;;;;;;13.30;94.30;;;;;;5065007;28;19939;-73
2022/11/10 13:44:21;;;;;;;;;;;13.30;94.30;;;;;;5081183;28;20000;-73
2022/11/10 13:46:58;;;;;;;;;;;13.30;94.20;;;;;;5061429;28;19923;-73
2022/11/10 13:49:30;;;;;;;;;;;13.30;94.20;;;;;;5074456;28;19942;-73
2022/11/10 13:52:15;;;;;;;;;;;13.30;94.30;;;;;;5043623;28;19913;-73
2022/11/10 13:54:44;;;;;;;;;;;13.30;94.20;;;;;;5058425;28;20007;-73
2022/11/10 13:57:28;;;;;;;;;;;13.30;94.10;;;;;;5062102;28;20032;-73
2022/11/10 13:59:55;;;;;;;;;;;13.30;94.00;;;;;;5062046;28;19951;-73
2022/11/10 14:02:32;;;;;;;;;;;13.20;94.10;;;;;;5065831;28;19934;-74
2022/11/10 14:05:08;;;;;;;;;;;13.30;94.10;;;;;;5062164;28;19913;-74
2022/11/10 14:07:44;;;;;;;;;;;13.30;94.10;;;;;;5065803;28;19916;-74
2022/11/10 14:10:11;;;;;;;;;;;13.20;94.10;;;;;;5064345;28;19912;-73
2022/11/10 14:12:40;;;;;;;;;;;13.20;94.10;;;;;;5069381;28;19931;-73
2022/11/10 14:15:24;;;;;;;;;;;13.20;94.10;;;;;;5070649;28;19961;-73
2022/11/10 14:17:50;;;;;;;;;;;13.20;94.20;;;;;;5049702;28;19917;-73
2022/11/10 14:20:36;;;;;;;;;;;13.20;94.10;;;;;;5065835;28;19917;-74
2022/11/10 14:23:03;;;;;;;;;;;13.20;94.00;;;;;;5067706;28;19913;-74
2022/11/10 14:25:35;;;;;;;;;;;13.20;94.10;;;;;;5067606;28;19920;-74
2022/11/10 14:28:36;;;;;;;;;;;13.20;94.10;;;;;;5067746;28;19912;-73
2022/11/10 14:31:02;;;;;;;;;;;13.10;94.30;;;;;;5045785;28;20011;-74
2022/11/10 14:33:28;;;;;;;;;;;13.20;94.10;;;;;;5062264;28;19920;-73